Skip to content

Investors

Investors

Ownership Profile

Shareholder Breakdown
Shareholder Holders Values ($) % O/S Shares
Institution 57 68 48.11 5,779,082
Mutual Fund 20 6 4.24 508,741
Institutional Shareholder Rotation
Shareholder Holders Values Change ($) % O/S Shares Change
Buyers 24 1.88 1.36 163,570
Sellers 21 -1.99 1.46 -175,659
Net -- -0.10 0.10 -12,089
Institutional Shareholder Concentration
Shareholder Values ($) % O/S Shares
Top 10 Inst. 58 40.51 4,865,937
Top 20 Inst. 65.02 45.89 5,512,453
Top 50 Inst. 68.14 48.11 5,778,461
Total Inst. 68.14 48.11 5,778,461
Institutional Shareholder Style
Shareholder Holders Values ($) % O/S Shares
Index 5 6 4.17 500,940
CoreGrowth 7 8 5.62 674,867
Growth 1 1 0.83 99,895
IncomeValue 1 0 0.19 22,991
BrokerDealer 8 4 2.92 351,329
GARP 5 4 2.60 312,362
HedgeFund 5 8 5.50 660,640
Specialty 1 0 0.09 11,098
CoreValue 4 0 0.21 25,508
DeepValue 3 1 0.73 87,302
Top Holders: Institutional Investor
Holder Shares Held % O/S Shares Change Filing Date
Gladstone (David John) 2,203,985 18.35 20,000 06/14/2017
Gladstone Future Trust 666,667 5.55 0 02/21/2017
Renaissance Technologies LLC 424,397 3.53 -21,303 06/30/2017
New Jersey Division of Investment 344,000 2.86 0 06/30/2017
The Vanguard Group, Inc. 309,464 2.58 7,356 06/30/2017
Wells Fargo Advisors 277,703 2.31 -273 06/30/2017
Foster & Motley, Inc. 223,510 1.86 14,507 06/30/2017
Marathon Capital Management 181,190 1.51 -300 06/30/2017
Bard Associates Inc. 134,650 1.12 0 06/30/2017
Diligent Investors, LLC 100,371 0.84 -6,399 06/30/2017
KBI Global Investors Ltd 99,895 0.83 41,222 06/30/2016
Horizon Kinetics LLC 90,624 0.75 1,914 06/30/2017
Deutsche Asset Management Americas 83,368 0.69 22,254 06/30/2017
Geode Capital Management, L.L.C. 80,282 0.67 -644 06/30/2017
Amundi Asset Management 72,095 0.60 0 06/30/2017
Shufro, Rose & Co., LLC 48,000 0.40 13,300 06/30/2017
Millennium Management LLC 47,426 0.39 23,931 06/30/2017
Northern Trust Investments, Inc. 44,052 0.37 7,673 06/30/2017
BlackRock Institutional Trust Company, N.A. 43,150 0.36 2,298 06/30/2017
Keeley-Teton Advisors, LLC 37,624 0.31 4,909 06/30/2017
Janney Montgomery Scott LLC 31,841 0.27 2,790 06/30/2017
Mellon Capital Management Corporation 23,992 0.20 -402 06/30/2017
BNY Mellon Asset Management 22,991 0.19 -201 06/30/2017
J.P. Morgan Securities LLC 21,073 0.18 11,183 06/30/2017
Loeb Partners Corporation 15,500 0.13 0 06/30/2017
T. Rowe Price Associates, Inc. 13,700 0.11 800 06/30/2017
Morgan Stanley Wealth Management 12,750 0.11 -121 06/30/2017
Stelac Advisory Services LLC 11,849 0.10 552 06/30/2017
State Teachers Retirement System of Ohio 11,595 0.10 943 06/30/2017
SEI Investments Management Corporation 11,098 0.09 0 06/30/2017
RBC Capital Markets Wealth Management 10,710 0.09 4,806 06/30/2017
FCA Corp. 9,700 0.08 0 01/31/2017
Bank of America Merrill Lynch (US) 9,500 0.08 -118 06/30/2017
Northern Trust Global Investments 9,387 0.08 0 06/30/2017
Adelgren (Paul W) 9,143 0.08 1,170 03/15/2017
Ladenburg Thalmann Asset Management Inc. (LTAM) 7,573 0.06 -9,427 06/30/2017
Parker (Anthony W) 5,395 0.04 234 02/21/2017
Wilkinson (Walter H Jr) 4,882 0.04 163 02/21/2017
Merrick (Caren D) 4,432 0.04 0 02/21/2017
UBS Financial Services, Inc. 3,100 0.03 1,900 06/30/2017
Parrish Lewis 3,000 0.02 500 03/14/2017
PanAgora Asset Management Inc. 2,857 0.02 -2,333 06/30/2017
Guggenheim Investments 2,724 0.02 4 06/30/2017
Outland (John H) 1,699 0.01 75 02/21/2017
BlackRock Investment Management, LLC 1,678 0.01 189 06/30/2017
AXA Rosenberg Investment Management LLC 1,489 0.01 181 03/31/2017
English (Michela A) 1,230 0.01 200 03/15/2017
Beckhorn (Jay) 450 0.00 450 03/15/2017
Cribstone Capital Management, LLC 370 0.00 270 06/30/2017
Barclays Capital 300 0.00 300 06/30/2017

Ownership data is provided by Thomson Reuters, a third party service, and Gladstone Land Corporation does not maintain or provide information directly to this service.